Time;durP1;ratioP1;P1;durP2;ratioP2;P2;SDS_P1;SDS_P2;PMS_P1;PMS_P2;Temp;Humidity;BMP_temperature;BMP_pressure;BME280_temperature;BME280_humidity;BME280_pressure;Samples;Min_cycle;Max_cycle;Signal;HPM_P1;HPM_P2
2021/05/24 00:00:13;;;;;;;;;;;;;;;12.25;67.00;100477.91;4430705;32;32402;-76
2021/05/24 00:02:41;;;;;;;;;;;;;;;12.10;67.08;100474.81;4431080;32;34912;-76
2021/05/24 00:05:10;;;;;;;;;;;;;;;12.36;66.06;100472.44;4445197;32;34793;-76
2021/05/24 00:07:38;;;;;;;;;;;;;;;12.27;66.10;100475.97;4445238;32;32910;-76
2021/05/24 00:10:07;;;;;;;;;;;;;;;12.25;65.96;100476.12;4431515;32;33413;-76
2021/05/24 00:12:34;;;;;;;;;;;;;;;12.39;65.42;100473.03;4430985;32;36843;-76
2021/05/24 00:15:02;;;;;;;;;;;;;;;12.33;65.61;100476.25;4431548;32;34351;-76
2021/05/24 00:17:30;;;;;;;;;;;;;;;12.40;65.16;100472.03;4431288;32;32908;-76
2021/05/24 00:19:58;;;;;;;;;;;;;;;12.41;64.84;100473.75;4418464;32;34185;-76
2021/05/24 00:22:25;;;;;;;;;;;;;;;12.41;64.53;100478.22;4430342;32;34525;-76
2021/05/24 00:24:53;;;;;;;;;;;;;;;12.39;64.44;100482.88;4444955;32;35153;-76
2021/05/24 00:27:20;;;;;;;;;;;;;;;12.35;64.38;100492.97;4445016;32;33475;-76
2021/05/24 00:29:48;;;;;;;;;;;;;;;12.40;64.14;100495.22;4445282;32;34623;-76
2021/05/24 00:32:16;;;;;;;;;;;;;;;12.26;64.45;100495.59;4418817;32;34634;-76
2021/05/24 00:34:43;;;;;;;;;;;;;;;12.33;63.73;100500.28;4430660;32;33719;-76
2021/05/24 00:37:21;;;;;;;;;;;;;;;12.23;63.88;100502.09;4445475;32;34015;-77
2021/05/24 00:39:49;;;;;;;;;;;;;;;12.21;64.02;100500.53;4445368;32;33787;-76
2021/05/24 00:42:17;;;;;;;;;;;;;;;12.10;64.29;100496.16;4431061;32;35262;-76
2021/05/24 00:44:44;;;;;;;;;;;;;;;12.02;64.76;100501.31;4418603;32;35419;-76
2021/05/24 00:47:12;;;;;;;;;;;;;;;11.57;65.89;100504.53;4430669;32;33779;-76
2021/05/24 00:49:44;;;;;;;;;;;;;;;11.68;65.54;100504.44;4445354;32;33392;-76
2021/05/24 00:52:12;;;;;;;;;;;;;;;11.72;65.26;100501.37;4431114;32;35590;-76
2021/05/24 00:54:40;;;;;;;;;;;;;;;11.73;65.59;100496.88;4430440;32;33699;-76
2021/05/24 00:57:07;;;;;;;;;;;;;;;11.72;65.79;100497.87;4445330;32;34683;-76
2021/05/24 00:59:35;;;;;;;;;;;;;;;11.70;65.68;100502.47;4444924;32;33548;-76
2021/05/24 01:02:03;;;;;;;;;;;;;;;11.81;64.86;100494.41;4444985;32;36110;-76
2021/05/24 01:04:31;;;;;;;;;;;;;;;11.90;64.20;100505.06;4430112;32;33267;-76
2021/05/24 01:06:58;;;;;;;;;;;;;;;11.90;63.91;100505.06;4430694;32;33886;-76
2021/05/24 01:09:26;;;;;;;;;;;;;;;11.52;64.91;100506.69;4430763;32;34801;-76
2021/05/24 01:11:54;;;;;;;;;;;;;;;11.68;64.55;100510.63;4417552;32;35741;-76
2021/05/24 01:14:21;;;;;;;;;;;;;;;11.80;64.23;100514.00;4444925;32;34775;-76
2021/05/24 01:16:52;;;;;;;;;;;;;;;11.81;63.61;100513.06;4445069;32;33065;-76
2021/05/24 01:19:20;;;;;;;;;;;;;;;11.72;63.86;100512.03;4430488;32;34633;-76
2021/05/24 01:21:48;;;;;;;;;;;;;;;11.48;64.56;100513.28;4430577;32;34931;-76
2021/05/24 01:24:17;;;;;;;;;;;;;;;11.25;65.19;100509.09;4430207;32;34411;-76
2021/05/24 01:29:32;;;;;;;;;;;;;;;11.58;64.40;100509.72;4460567;26;33410;-77
2021/05/24 01:32:00;;;;;;;;;;;;;;;11.55;64.07;100509.13;4438320;32;34787;-77
2021/05/24 01:34:29;;;;;;;;;;;;;;;11.57;64.03;100515.19;4425495;32;33397;-76
2021/05/24 01:36:57;;;;;;;;;;;;;;;11.50;64.18;100516.66;4426584;32;32803;-77
2021/05/24 01:39:25;;;;;;;;;;;;;;;11.43;64.78;100518.16;4426636;32;33472;-76
2021/05/24 01:41:52;;;;;;;;;;;;;;;11.47;64.89;100515.09;4440350;32;34435;-77
2021/05/24 01:44:30;;;;;;;;;;;;;;;11.20;65.65;100524.63;4454368;32;35834;-76
2021/05/24 01:46:58;;;;;;;;;;;;;;;10.88;66.54;100521.19;4426723;32;32664;-76
2021/05/24 01:49:26;;;;;;;;;;;;;;;11.22;65.65;100525.31;4440673;32;33653;-77
2021/05/24 01:51:53;;;;;;;;;;;;;;;11.13;66.03;100523.44;4453729;32;34666;-77
2021/05/24 01:54:21;;;;;;;;;;;;;;;11.13;65.84;100520.78;4426498;32;34597;-76
2021/05/24 01:56:49;;;;;;;;;;;;;;;11.24;65.49;100523.38;4439376;32;32796;-77
2021/05/24 01:59:16;;;;;;;;;;;;;;;11.32;64.98;100526.22;4430587;32;32341;-77
2021/05/24 02:01:44;;;;;;;;;;;;;;;11.15;65.71;100531.31;4414195;32;35961;-76
2021/05/24 02:04:13;;;;;;;;;;;;;;;11.17;65.88;100537.34;4428174;32;34125;-77
2021/05/24 02:06:41;;;;;;;;;;;;;;;10.65;67.81;100537.38;4435980;32;32939;-76
2021/05/24 02:09:08;;;;;;;;;;;;;;;10.66;68.00;100536.41;4437732;32;34188;-76
2021/05/24 02:11:37;;;;;;;;;;;;;;;10.36;69.04;100531.78;4425456;32;36781;-77
2021/05/24 02:14:05;;;;;;;;;;;;;;;10.74;68.00;100524.13;4455216;32;33769;-76
2021/05/24 02:16:36;;;;;;;;;;;;;;;11.02;66.50;100515.53;4426524;32;32167;-77
2021/05/24 02:19:03;;;;;;;;;;;;;;;11.15;65.64;100521.50;4438621;32;34333;-76
2021/05/24 02:21:31;;;;;;;;;;;;;;;10.49;67.29;100521.81;4454625;32;34349;-76
2021/05/24 02:23:59;;;;;;;;;;;;;;;10.49;67.53;100526.31;4453455;32;34444;-76
2021/05/24 02:26:27;;;;;;;;;;;;;;;10.62;67.16;100525.16;4450325;32;32925;-76
2021/05/24 02:28:54;;;;;;;;;;;;;;;11.02;66.01;100522.69;4438130;32;33279;-77
2021/05/24 02:31:22;;;;;;;;;;;;;;;11.10;65.83;100533.50;4440504;32;34889;-77
2021/05/24 02:33:49;;;;;;;;;;;;;;;11.13;65.80;100534.09;4451908;32;34303;-77
2021/05/24 02:36:21;;;;;;;;;;;;;;;11.16;65.79;100538.31;4438339;32;33029;-76
2021/05/24 02:38:48;;;;;;;;;;;;;;;11.21;65.55;100536.97;4440152;32;33712;-77
2021/05/24 02:41:16;;;;;;;;;;;;;;;11.10;65.91;100538.84;4425033;32;34450;-77
2021/05/24 02:43:45;;;;;;;;;;;;;;;11.11;66.23;100543.22;4426018;32;34459;-77
2021/05/24 02:46:13;;;;;;;;;;;;;;;10.95;66.82;100546.28;4440089;32;33298;-77
2021/05/24 02:48:41;;;;;;;;;;;;;;;11.12;66.18;100544.91;4439649;32;33898;-77
2021/05/24 02:51:08;;;;;;;;;;;;;;;11.10;66.17;100541.50;4455299;32;35607;-76
2021/05/24 02:53:36;;;;;;;;;;;;;;;11.11;66.35;100556.53;4429587;32;33179;-77
2021/05/24 02:56:04;;;;;;;;;;;;;;;11.20;66.26;100574.38;4452940;32;33524;-76
2021/05/24 02:58:31;;;;;;;;;;;;;;;11.09;66.59;100571.75;4442741;32;32798;-77
2021/05/24 03:00:59;;;;;;;;;;;;;;;11.09;66.28;100572.63;4440593;32;35080;-77
2021/05/24 03:03:29;;;;;;;;;;;;;;;11.17;66.00;100571.97;4426273;32;33808;-76
2021/05/24 03:05:57;;;;;;;;;;;;;;;11.14;65.77;100573.06;4438687;32;34050;-76
2021/05/24 03:08:24;;;;;;;;;;;;;;;10.96;65.83;100577.28;4438447;32;33797;-77
2021/05/24 03:10:53;;;;;;;;;;;;;;;11.01;65.61;100572.41;4438096;32;34895;-76
2021/05/24 03:13:23;;;;;;;;;;;;;;;11.11;65.02;100569.84;4457676;32;35115;-76
2021/05/24 03:15:50;;;;;;;;;;;;;;;10.99;65.44;100574.38;4439342;32;33080;-77
2021/05/24 03:18:19;;;;;;;;;;;;;;;11.03;65.30;100572.31;4454466;32;35307;-77
2021/05/24 03:20:46;;;;;;;;;;;;;;;10.62;66.56;100575.72;4454368;32;35370;-76
2021/05/24 03:23:14;;;;;;;;;;;;;;;9.73;69.81;100574.09;4439653;32;34041;-76
2021/05/24 03:25:41;;;;;;;;;;;;;;;10.41;67.12;100571.31;4456174;32;33626;-76
2021/05/24 03:28:09;;;;;;;;;;;;;;;10.28;67.21;100576.75;4427540;32;33189;-76
2021/05/24 03:30:36;;;;;;;;;;;;;;;10.06;68.13;100581.25;4427172;32;34958;-76
2021/05/24 03:33:04;;;;;;;;;;;;;;;10.34;67.59;100583.41;4427570;32;33506;-76
2021/05/24 03:35:32;;;;;;;;;;;;;;;10.26;68.45;100580.50;4440980;32;32921;-76
2021/05/24 03:38:00;;;;;;;;;;;;;;;10.37;68.31;100583.19;4438282;32;33719;-76
2021/05/24 03:40:27;;;;;;;;;;;;;;;10.70;67.40;100588.38;4443310;32;35050;-76
2021/05/24 03:42:55;;;;;;;;;;;;;;;10.49;68.33;100588.31;4452264;32;34348;-77
2021/05/24 03:45:23;;;;;;;;;;;;;;;10.68;67.62;100585.00;4452138;32;33818;-77
2021/05/24 03:47:51;;;;;;;;;;;;;;;10.53;67.90;100581.78;4441321;32;34072;-77
2021/05/24 03:50:19;;;;;;;;;;;;;;;10.77;67.25;100586.91;4438346;32;34473;-77
2021/05/24 03:52:46;;;;;;;;;;;;;;;10.81;67.20;100591.00;4424823;32;34331;-76
2021/05/24 03:55:17;;;;;;;;;;;;;;;10.86;67.03;100589.66;4440412;32;33541;-77
2021/05/24 03:57:46;;;;;;;;;;;;;;;10.91;67.03;100573.31;4437822;32;33722;-76
2021/05/24 04:00:14;;;;;;;;;;;;;;;10.98;67.12;100580.66;4455283;32;34339;-76
2021/05/24 04:02:42;;;;;;;;;;;;;;;10.80;67.93;100586.66;4439867;32;35306;-76
2021/05/24 04:05:32;;;;;;;;;;;;;;;10.71;68.46;100579.44;4425218;32;34003;-76
2021/05/24 04:08:01;;;;;;;;;;;;;;;10.79;68.52;100587.62;4442993;32;34087;-76
2021/05/24 04:10:32;;;;;;;;;;;;;;;10.77;68.76;100595.72;4442742;32;35647;-77
2021/05/24 04:12:59;;;;;;;;;;;;;;;10.44;70.47;100590.53;4438998;32;33866;-77
2021/05/24 04:15:27;;;;;;;;;;;;;;;10.73;69.84;100590.78;4439914;32;33949;-77
2021/05/24 04:17:58;;;;;;;;;;;;;;;10.93;69.62;100603.31;4424494;32;34585;-77
2021/05/24 04:20:26;;;;;;;;;;;;;;;11.08;69.26;100608.22;4451223;32;35879;-77
2021/05/24 04:22:53;;;;;;;;;;;;;;;11.25;68.88;100602.34;4438370;32;35049;-76
2021/05/24 04:25:21;;;;;;;;;;;;;;;11.25;68.99;100605.00;4456611;32;32710;-77
2021/05/24 04:27:50;;;;;;;;;;;;;;;11.30;69.21;100604.59;4439749;32;33857;-77
2021/05/24 04:30:17;;;;;;;;;;;;;;;10.85;71.31;100603.09;4423976;32;35992;-76
2021/05/24 04:32:45;;;;;;;;;;;;;;;11.30;70.05;100601.94;4436419;32;33970;-76
2021/05/24 04:35:14;;;;;;;;;;;;;;;11.50;69.36;100602.78;4429235;32;33094;-77
2021/05/24 04:37:42;;;;;;;;;;;;;;;11.68;69.30;100600.38;4453880;32;33417;-77
2021/05/24 04:40:10;;;;;;;;;;;;;;;11.77;69.45;100603.13;4451224;32;34727;-77
2021/05/24 04:42:38;;;;;;;;;;;;;;;11.73;69.70;100592.84;4436593;32;35076;-77
2021/05/24 04:45:06;;;;;;;;;;;;;;;11.80;69.49;100592.19;4439802;32;32979;-77
2021/05/24 04:47:34;;;;;;;;;;;;;;;11.94;69.49;100588.31;4436418;32;33169;-77
2021/05/24 04:50:03;;;;;;;;;;;;;;;12.14;68.86;100582.06;4437198;32;34725;-77
2021/05/24 04:52:30;;;;;;;;;;;;;;;11.88;70.27;100583.50;4450620;32;33905;-77
2021/05/24 04:54:58;;;;;;;;;;;;;;;11.97;70.33;100591.56;4443156;32;33285;-77
2021/05/24 04:57:40;;;;;;;;;;;;;;;12.09;70.29;100589.66;4462372;31;841839;-76
2021/05/24 05:00:09;;;;;;;;;;;;;;;12.13;70.07;100599.06;4473000;32;32218;-76
2021/05/24 05:02:37;;;;;;;;;;;;;;;12.17;70.68;100600.47;4473598;32;34470;-76
2021/05/24 05:05:07;;;;;;;;;;;;;;;12.18;71.12;100613.69;4444985;31;35255;-76
2021/05/24 05:07:38;;;;;;;;;;;;;;;12.38;70.85;100612.75;4459382;32;33776;-76
2021/05/24 05:10:06;;;;;;;;;;;;;;;12.58;70.15;100613.66;4462054;31;32884;-76
2021/05/24 05:12:36;;;;;;;;;;;;;;;12.93;69.23;100620.19;4459699;32;32765;-76
2021/05/24 05:15:07;;;;;;;;;;;;;;;12.97;69.34;100629.66;4470609;32;34791;-76
2021/05/24 05:17:37;;;;;;;;;;;;;;;12.95;69.69;100638.78;4462535;32;34543;-76
2021/05/24 05:20:05;;;;;;;;;;;;;;;13.31;68.75;100632.75;4489180;31;33449;-76
2021/05/24 05:22:33;;;;;;;;;;;;;;;13.22;69.81;100630.94;4489082;32;34755;-76
2021/05/24 05:25:01;;;;;;;;;;;;;;;12.87;69.90;100614.56;4449529;32;34000;-76
2021/05/24 05:27:32;;;;;;;;;;;;;;;12.45;71.53;100608.56;4490396;32;34790;-76
2021/05/24 05:30:01;;;;;;;;;;;;;;;13.18;69.68;100600.97;4487274;32;32640;-77
2021/05/24 05:32:31;;;;;;;;;;;;;;;13.75;67.85;100600.03;4475800;32;35704;-76
2021/05/24 05:34:59;;;;;;;;;;;;;;;13.55;68.15;100603.72;4487123;32;35650;-77
2021/05/24 05:37:26;;;;;;;;;;;;;;;13.84;67.95;100596.47;4459399;32;34079;-77
2021/05/24 05:39:56;;;;;;;;;;;;;;;12.98;70.79;100593.09;4488478;31;32385;-77
2021/05/24 05:42:24;;;;;;;;;;;;;;;13.97;68.05;100589.81;4461334;32;32533;-77
2021/05/24 05:44:52;;;;;;;;;;;;;;;14.13;67.23;100592.72;4457655;31;33527;-78
2021/05/24 05:47:23;;;;;;;;;;;;;;;14.06;66.26;100596.13;4473833;32;35071;-76
2021/05/24 05:49:51;;;;;;;;;;;;;;;14.49;65.74;100597.22;4460741;32;31753;-77
2021/05/24 05:52:19;;;;;;;;;;;;;;;13.20;69.55;100600.84;4475257;32;34109;-77
2021/05/24 05:54:47;;;;;;;;;;;;;;;14.13;66.12;100600.75;4472811;32;33934;-78
2021/05/24 05:57:15;;;;;;;;;;;;;;;13.85;66.47;100593.66;4471641;32;35544;-77
2021/05/24 05:59:43;;;;;;;;;;;;;;;14.36;65.93;100595.88;4473002;32;31671;-78
2021/05/24 06:02:13;;;;;;;;;;;;;;;14.43;65.46;100611.19;4472078;31;35202;-78
2021/05/24 06:04:41;;;;;;;;;;;;;;;14.56;65.21;100607.16;4470405;32;35241;-78
2021/05/24 06:07:09;;;;;;;;;;;;;;;15.15;64.30;100620.88;4457554;32;34862;-77
2021/05/24 06:09:39;;;;;;;;;;;;;;;14.72;63.55;100626.09;4451131;32;31757;-77
2021/05/24 06:12:08;;;;;;;;;;;;;;;14.93;64.50;100632.03;4478457;32;34353;-78
2021/05/24 06:14:40;;;;;;;;;;;;;;;15.66;63.46;100626.34;4463258;32;35569;-76
2021/05/24 06:17:08;;;;;;;;;;;;;;;15.13;63.19;100624.69;4462377;32;34752;-77
2021/05/24 06:19:35;;;;;;;;;;;;;;;14.94;64.06;100624.84;4462646;32;32776;-77
2021/05/24 06:22:06;;;;;;;;;;;;;;;14.87;65.37;100629.97;4477058;32;33699;-77
2021/05/24 06:24:34;;;;;;;;;;;;;;;14.95;65.50;100626.53;4477696;32;34800;-77
2021/05/24 06:27:04;;;;;;;;;;;;;;;15.10;66.54;100625.84;4450787;32;34480;-76
2021/05/24 06:29:37;;;;;;;;;;;;;;;15.51;65.10;100638.62;4451534;32;32190;-77
2021/05/24 06:32:06;;;;;;;;;;;;;;;15.30;65.75;100621.16;4450122;32;32492;-76
2021/05/24 06:34:36;;;;;;;;;;;;;;;14.94;64.62;100622.97;4476569;32;35707;-77
2021/05/24 06:37:04;;;;;;;;;;;;;;;15.61;63.05;100625.12;4462101;32;34836;-77
2021/05/24 06:39:34;;;;;;;;;;;;;;;15.55;63.97;100617.69;4477052;32;32820;-77
2021/05/24 06:42:04;;;;;;;;;;;;;;;15.42;65.00;100619.97;4449036;32;34598;-77
2021/05/24 06:44:35;;;;;;;;;;;;;;;15.63;63.61;100633.87;4462517;32;33560;-76
2021/05/24 06:47:02;;;;;;;;;;;;;;;15.58;63.45;100642.38;4475913;32;34392;-77
2021/05/24 06:49:32;;;;;;;;;;;;;;;16.14;61.19;100645.44;4438350;32;32286;-77
2021/05/24 06:52:02;;;;;;;;;;;;;;;16.39;63.05;100644.63;4462406;32;33607;-77
2021/05/24 06:54:30;;;;;;;;;;;;;;;16.62;60.01;100643.03;4476957;32;34122;-77
2021/05/24 06:56:58;;;;;;;;;;;;;;;17.38;59.79;100627.59;4462533;32;35031;-77
2021/05/24 06:59:29;;;;;;;;;;;;;;;16.37;57.43;100633.19;4476816;32;34282;-76
2021/05/24 07:01:58;;;;;;;;;;;;;;;16.27;57.58;100626.22;4449511;32;33366;-76
2021/05/24 07:04:31;;;;;;;;;;;;;;;16.58;58.18;100613.97;4449617;32;34671;-76
2021/05/24 07:07:04;;;;;;;;;;;;;;;16.55;56.75;100604.41;4458672;32;33916;-76
2021/05/24 07:09:37;;;;;;;;;;;;;;;16.46;56.51;100605.38;4475649;32;32402;-77
2021/05/24 07:12:08;;;;;;;;;;;;;;;16.12;58.95;100612.56;4476399;32;34701;-77
2021/05/24 07:14:43;;;;;;;;;;;;;;;16.23;58.10;100614.97;4459491;32;33920;-77
2021/05/24 07:17:14;;;;;;;;;;;;;;;16.32;59.08;100602.44;4463437;32;34923;-76
2021/05/24 07:19:47;;;;;;;;;;;;;;;16.50;58.43;100598.66;4460842;32;31857;-78
2021/05/24 07:22:18;;;;;;;;;;;;;;;16.86;57.90;100612.69;4477256;32;35172;-77
2021/05/24 07:24:49;;;;;;;;;;;;;;;16.56;57.21;100595.34;4460875;32;36059;-78
2021/05/24 07:27:19;;;;;;;;;;;;;;;16.67;58.08;100602.22;4461346;32;35038;-77
2021/05/24 07:29:47;;;;;;;;;;;;;;;16.70;56.71;100594.69;4462705;32;32641;-77
2021/05/24 07:32:17;;;;;;;;;;;;;;;16.69;57.43;100584.12;4477159;32;34050;-78
2021/05/24 07:34:44;;;;;;;;;;;;;;;17.48;59.75;100593.31;4448227;32;35073;-78
2021/05/24 07:37:13;;;;;;;;;;;;;;;17.31;55.15;100591.59;4460973;32;34249;-78
2021/05/24 07:39:41;;;;;;;;;;;;;;;16.85;57.04;100576.09;4449232;32;33652;-78
2021/05/24 07:42:09;;;;;;;;;;;;;;;17.35;58.78;100561.50;4448880;32;32243;-77
2021/05/24 07:44:45;;;;;;;;;;;;;;;17.53;53.45;100556.81;4476785;32;35034;-78
2021/05/24 07:47:13;;;;;;;;;;;;;;;17.62;53.59;100567.41;4461895;32;34241;-77
2021/05/24 07:49:43;;;;;;;;;;;;;;;17.23;54.42;100575.44;4476315;32;32765;-77
2021/05/24 07:52:21;;;;;;;;;;;;;;;17.14;53.20;100568.38;4477485;32;33753;-79
2021/05/24 07:54:52;;;;;;;;;;;;;;;17.27;53.85;100568.75;4476617;32;34772;-77
2021/05/24 07:57:20;;;;;;;;;;;;;;;17.18;53.77;100562.50;4462029;32;33835;-77
2021/05/24 07:59:49;;;;;;;;;;;;;;;16.90;55.04;100571.88;4475970;32;33664;-77
2021/05/24 08:02:17;;;;;;;;;;;;;;;17.37;55.54;100572.13;4475542;32;33391;-76
2021/05/24 08:04:47;;;;;;;;;;;;;;;17.57;53.62;100571.63;4476600;32;35082;-77
2021/05/24 08:07:19;;;;;;;;;;;;;;;17.94;52.21;100569.19;4449834;32;34351;-77
2021/05/24 08:09:47;;;;;;;;;;;;;;;17.50;53.93;100576.81;4477504;32;32638;-76
2021/05/24 08:12:18;;;;;;;;;;;;;;;17.55;53.78;100579.00;4448718;32;32718;-77
2021/05/24 08:14:51;;;;;;;;;;;;;;;17.95;53.49;100571.69;4424860;32;33571;-76
2021/05/24 08:17:18;;;;;;;;;;;;;;;17.68;53.16;100566.72;4476069;32;33994;-76
2021/05/24 08:19:48;;;;;;;;;;;;;;;17.51;53.58;100566.91;4462804;32;32938;-76
2021/05/24 08:22:16;;;;;;;;;;;;;;;17.97;52.90;100572.34;4476666;32;34023;-76
2021/05/24 08:24:44;;;;;;;;;;;;;;;17.84;53.13;100580.16;4462761;32;34904;-77
2021/05/24 08:27:11;;;;;;;;;;;;;;;17.81;52.94;100583.19;4461646;32;34204;-77
2021/05/24 08:29:39;;;;;;;;;;;;;;;18.19;53.30;100585.09;4475903;32;32862;-76
2021/05/24 08:32:06;;;;;;;;;;;;;;;18.18;54.69;100579.87;4474281;32;33750;-77
2021/05/24 08:34:37;;;;;;;;;;;;;;;18.23;52.92;100581.03;4475504;32;35808;-77
2021/05/24 08:37:04;;;;;;;;;;;;;;;18.40;52.03;100587.22;4461518;32;35264;-77
2021/05/24 08:39:32;;;;;;;;;;;;;;;18.67;54.11;100584.91;4461344;32;32506;-76
2021/05/24 08:42:02;;;;;;;;;;;;;;;18.40;52.00;100589.91;4474772;32;33595;-76
2021/05/24 08:44:30;;;;;;;;;;;;;;;18.44;52.02;100593.94;4461825;32;34887;-76
2021/05/24 08:46:59;;;;;;;;;;;;;;;18.33;52.73;100595.16;4475841;32;34306;-76
2021/05/24 08:49:45;;;;;;;;;;;;;;;18.15;52.22;100597.22;4452148;32;32810;-76
2021/05/24 08:52:13;;;;;;;;;;;;;;;18.09;53.36;100594.38;4447849;32;34158;-76
2021/05/24 08:54:41;;;;;;;;;;;;;;;18.29;53.70;100585.75;4461258;32;34392;-76
2021/05/24 08:57:09;;;;;;;;;;;;;;;18.87;52.47;100590.72;4475412;32;35103;-77
2021/05/24 08:59:37;;;;;;;;;;;;;;;18.36;51.65;100581.38;4460993;32;32387;-77
2021/05/24 09:02:04;;;;;;;;;;;;;;;18.68;51.41;100583.03;4475522;32;34934;-76
2021/05/24 09:04:45;;;;;;;;;;;;;;;18.52;51.39;100586.66;4461292;32;36015;-76
2021/05/24 09:07:13;;;;;;;;;;;;;;;18.98;52.01;100593.81;4476075;32;34086;-77
2021/05/24 09:10:00;;;;;;;;;;;;;;;18.87;52.71;100590.72;4461278;32;32353;-76
2021/05/24 09:12:33;;;;;;;;;;;;;;;19.31;51.22;100587.22;4475937;32;34438;-77
2021/05/24 09:15:08;;;;;;;;;;;;;;;19.49;48.78;100576.94;4448058;32;33829;-77
2021/05/24 09:17:55;;;;;;;;;;;;;;;19.52;48.49;100576.56;4460008;32;34556;-76
2021/05/24 09:20:22;;;;;;;;;;;;;;;19.14;47.45;100584.75;4462479;32;33143;-77
2021/05/24 09:23:04;;;;;;;;;;;;;;;19.74;46.84;100567.56;4476346;32;34645;-77
2021/05/24 09:25:50;;;;;;;;;;;;;;;19.20;48.25;100576.84;4461594;32;34988;-76
2021/05/24 09:28:35;;;;;;;;;;;;;;;19.11;47.63;100575.19;4475411;32;35276;-76
2021/05/24 09:31:06;;;;;;;;;;;;;;;18.83;48.11;100575.87;4460401;32;33192;-77
2021/05/24 09:33:34;;;;;;;;;;;;;;;19.72;48.93;100566.09;4475196;32;34364;-77
2021/05/24 09:36:03;;;;;;;;;;;;;;;19.51;47.81;100564.09;4460717;32;35491;-77
2021/05/24 09:38:36;;;;;;;;;;;;;;;19.46;47.75;100562.97;4447474;32;34500;-76
2021/05/24 09:41:05;;;;;;;;;;;;;;;18.89;48.83;100567.91;4474698;32;32628;-77
2021/05/24 09:43:53;;;;;;;;;;;;;;;18.92;49.25;100550.53;4454488;32;35040;-76
2021/05/24 09:46:25;;;;;;;;;;;;;;;18.59;50.85;100552.59;4450879;32;34734;-77
2021/05/24 09:49:00;;;;;;;;;;;;;;;19.44;50.12;100540.72;4438583;32;34180;-76
2021/05/24 09:51:29;;;;;;;;;;;;;;;19.20;48.84;100536.38;4450591;32;31891;-77
2021/05/24 09:53:57;;;;;;;;;;;;;;;19.52;49.42;100536.06;4459597;32;34065;-76
2021/05/24 09:56:25;;;;;;;;;;;;;;;19.53;46.71;100528.81;4449991;32;34397;-76
2021/05/24 09:58:59;;;;;;;;;;;;;;;19.96;45.46;100518.06;4476326;32;34793;-77
2021/05/24 10:01:31;;;;;;;;;;;;;;;19.70;46.99;100522.22;4477222;32;32405;-76
2021/05/24 10:03:59;;;;;;;;;;;;;;;20.19;45.07;100510.69;4463496;32;34733;-76
2021/05/24 10:06:27;;;;;;;;;;;;;;;19.69;45.19;100520.53;4477671;32;35881;-76
2021/05/24 10:08:55;;;;;;;;;;;;;;;19.55;46.35;100524.91;4478344;32;34896;-76
2021/05/24 10:11:24;;;;;;;;;;;;;;;19.54;45.80;100517.81;4478200;32;33308;-76
2021/05/24 10:13:52;;;;;;;;;;;;;;;19.42;46.19;100526.53;4464818;32;33025;-76
2021/05/24 10:16:19;;;;;;;;;;;;;;;19.71;45.11;100532.84;4478955;32;35954;-77
2021/05/24 10:18:47;;;;;;;;;;;;;;;19.53;45.53;100534.22;4464113;32;34666;-78
2021/05/24 10:21:15;;;;;;;;;;;;;;;20.15;46.07;100540.97;4448419;32;33924;-77
2021/05/24 10:23:43;;;;;;;;;;;;;;;20.14;45.70;100523.09;4461478;32;34819;-77
2021/05/24 10:26:11;;;;;;;;;;;;;;;20.46;45.75;100520.00;4477273;32;34933;-77
2021/05/24 10:28:39;;;;;;;;;;;;;;;20.22;45.49;100531.97;4462501;32;34011;-77
2021/05/24 10:31:15;;;;;;;;;;;;;;;19.94;49.07;100527.38;4463577;32;33666;-76
2021/05/24 10:33:43;;;;;;;;;;;;;;;20.48;45.49;100516.03;4459065;32;33851;-76
2021/05/24 10:36:15;;;;;;;;;;;;;;;20.52;45.10;100508.41;4463002;32;35656;-77
2021/05/24 10:38:43;;;;;;;;;;;;;;;20.88;45.37;100510.09;4462784;32;35251;-77
2021/05/24 10:41:11;;;;;;;;;;;;;;;20.75;44.71;100502.63;4477119;32;33776;-77
2021/05/24 10:43:41;;;;;;;;;;;;;;;21.08;43.96;100500.28;4462237;32;33959;-77
2021/05/24 10:46:25;;;;;;;;;;;;;;;21.06;44.69;100505.88;4476663;32;34671;-77
2021/05/24 10:48:59;;;;;;;;;;;;;;;20.92;45.11;100512.22;4476923;32;34516;-77
2021/05/24 10:51:45;;;;;;;;;;;;;;;21.58;44.25;100508.19;4462213;32;32303;-76
2021/05/24 10:54:20;;;;;;;;;;;;;;;21.07;43.17;100507.56;4446394;32;33097;-76
2021/05/24 10:57:00;;;;;;;;;;;;;;;20.84;43.31;100506.03;4451381;32;34368;-77
2021/05/24 10:59:44;;;;;;;;;;;;;;;20.53;44.34;100503.62;4476430;32;34812;-76
2021/05/24 11:02:26;;;;;;;;;;;;;;;20.27;45.54;100497.09;4461440;32;32120;-76
2021/05/24 11:05:00;;;;;;;;;;;;;;;20.68;45.62;100479.28;4443861;32;32808;-76
2021/05/24 11:07:44;;;;;;;;;;;;;;;20.27;46.13;100475.47;4477686;32;34979;-77
2021/05/24 11:10:18;;;;;;;;;;;;;;;20.70;44.60;100478.03;4449886;32;33314;-78
2021/05/24 11:12:46;;;;;;;;;;;;;;;20.37;45.28;100491.37;4461020;32;32769;-76
2021/05/24 11:15:26;;;;;;;;;;;;;;;20.80;44.40;100478.53;4476963;32;33205;-76
2021/05/24 11:18:04;;;;;;;;;;;;;;;20.29;45.07;100478.00;4463257;32;35517;-77
2021/05/24 11:20:38;;;;;;;;;;;;;;;20.05;45.54;100471.03;4461944;32;33223;-77
2021/05/24 11:25:59;;;;;;;;;;;;;;;20.18;45.94;100465.78;4461113;32;32545;-77
2021/05/24 11:28:33;;;;;;;;;;;;;;;20.03;43.57;100464.97;4460444;32;35071;-76
2021/05/24 11:31:13;;;;;;;;;;;;;;;19.87;44.43;100464.31;4462245;32;34540;-76
2021/05/24 11:33:42;;;;;;;;;;;;;;;19.58;45.68;100461.63;4475899;32;33523;-77
2021/05/24 11:36:10;;;;;;;;;;;;;;;19.26;47.99;100456.56;4476210;32;33157;-76
2021/05/24 11:38:37;;;;;;;;;;;;;;;19.21;47.52;100461.66;4461830;32;34077;-76
2021/05/24 11:41:09;;;;;;;;;;;;;;;19.20;47.60;100454.59;4477056;32;35115;-76
2021/05/24 11:43:39;;;;;;;;;;;;;;;19.22;48.37;100460.63;4462240;32;34228;-76
2021/05/24 11:46:07;;;;;;;;;;;;;;;19.37;47.85;100459.62;4449750;32;32860;-76
2021/05/24 11:48:35;;;;;;;;;;;;;;;19.26;47.05;100464.66;4476526;32;34785;-77
2021/05/24 11:51:04;;;;;;;;;;;;;;;19.60;46.58;100462.25;4459571;32;34702;-76
2021/05/24 11:53:32;;;;;;;;;;;;;;;19.96;47.13;100465.88;4461833;32;33323;-76
2021/05/24 11:56:10;;;;;;;;;;;;;;;19.24;46.09;100467.53;4462184;32;33230;-77
2021/05/24 11:59:00;;;;;;;;;;;;;;;19.64;45.85;100467.09;4476791;32;36661;-77
2021/05/24 12:01:28;;;;;;;;;;;;;;;19.53;47.97;100475.66;4461766;32;34770;-76
2021/05/24 12:03:56;;;;;;;;;;;;;;;19.53;46.73;100474.84;4462653;32;32437;-77
2021/05/24 12:06:24;;;;;;;;;;;;;;;19.84;46.53;100464.69;4449122;32;32753;-77
2021/05/24 12:08:51;;;;;;;;;;;;;;;20.29;47.27;100454.50;4462302;32;35634;-77
2021/05/24 12:11:19;;;;;;;;;;;;;;;19.95;46.71;100453.41;4462164;32;33279;-77
2021/05/24 12:13:56;;;;;;;;;;;;;;;20.16;46.20;100454.34;4462805;32;32960;-77
2021/05/24 12:16:24;;;;;;;;;;;;;;;20.09;44.96;100449.91;4476153;32;33528;-78
2021/05/24 12:18:53;;;;;;;;;;;;;;;19.90;47.65;100450.44;4477079;32;36060;-77
2021/05/24 12:21:34;;;;;;;;;;;;;;;20.20;45.97;100438.59;4448841;32;33156;-77
2021/05/24 12:24:03;;;;;;;;;;;;;;;19.93;45.58;100436.56;4462265;32;33218;-76
2021/05/24 12:26:30;;;;;;;;;;;;;;;19.99;46.09;100430.41;4476369;32;33833;-76
2021/05/24 12:28:59;;;;;;;;;;;;;;;20.01;45.72;100428.34;4462229;32;35444;-76
2021/05/24 12:31:27;;;;;;;;;;;;;;;20.29;46.53;100415.84;4461930;32;34394;-76
2021/05/24 12:33:55;;;;;;;;;;;;;;;19.81;46.78;100408.38;4475984;32;33878;-76
2021/05/24 12:36:23;;;;;;;;;;;;;;;19.78;48.45;100408.72;4476072;32;33242;-75
2021/05/24 12:38:52;;;;;;;;;;;;;;;19.50;49.76;100395.09;4461615;32;35746;-75
2021/05/24 12:41:20;;;;;;;;;;;;;;;19.62;49.72;100382.78;4462292;32;35336;-75
2021/05/24 12:43:52;;;;;;;;;;;;;;;19.93;50.04;100382.56;4461947;32;32937;-75
2021/05/24 12:46:20;;;;;;;;;;;;;;;19.47;51.05;100371.19;4449133;32;34121;-75
2021/05/24 12:48:53;;;;;;;;;;;;;;;19.32;52.24;100373.03;4441204;32;35349;-75
2021/05/24 12:51:26;;;;;;;;;;;;;;;18.80;52.45;100369.47;4462540;32;34977;-75
2021/05/24 12:53:57;;;;;;;;;;;;;;;18.67;53.83;100369.28;4461592;32;32857;-75